createdAt,value
2023-03-04T00:00:12.627Z,2.56
2023-03-04T00:00:46.467Z,2.56
2023-03-04T00:01:18.073Z,2.54
2023-03-04T00:01:50.667Z,2.55
2023-03-04T00:02:22.455Z,2.54
2023-03-04T00:02:54.168Z,2.54
2023-03-04T00:03:25.847Z,2.55
2023-03-04T00:03:57.493Z,2.55
2023-03-04T00:04:29.070Z,2.56
2023-03-04T00:05:00.698Z,2.55
2023-03-04T00:05:32.792Z,2.55
2023-03-04T00:06:05.250Z,2.55
2023-03-04T00:06:36.810Z,2.55
2023-03-04T00:07:08.552Z,2.56
2023-03-04T00:07:40.184Z,2.58
2023-03-04T00:08:11.875Z,2.58
2023-03-04T00:08:43.528Z,2.58
2023-03-04T00:09:15.140Z,2.59
2023-03-04T00:09:47.247Z,2.60
2023-03-04T00:10:19.064Z,2.58
2023-03-04T00:10:50.705Z,2.56
2023-03-04T00:11:22.360Z,2.56
2023-03-04T00:11:54.073Z,2.55
2023-03-04T00:12:25.682Z,2.54
2023-03-04T00:12:57.301Z,2.53
2023-03-04T00:13:28.981Z,2.53
2023-03-04T00:14:00.904Z,2.53
2023-03-04T00:14:32.461Z,2.52
2023-03-04T00:15:04.308Z,2.50
2023-03-04T00:15:35.868Z,2.51
2023-03-04T00:16:07.983Z,2.49
2023-03-04T00:16:39.652Z,2.49
2023-03-04T00:17:11.377Z,2.48
2023-03-04T00:17:43.026Z,2.49
2023-03-04T00:18:14.623Z,2.49
2023-03-04T00:18:46.204Z,2.49
2023-03-04T00:19:17.826Z,2.50
2023-03-04T00:19:49.462Z,2.49
2023-03-04T00:20:21.134Z,2.47
2023-03-04T00:20:52.724Z,2.46
2023-03-04T00:21:24.900Z,2.46
2023-03-04T00:21:56.746Z,2.44
2023-03-04T00:22:28.334Z,2.43
2023-03-04T00:22:59.947Z,2.43
2023-03-04T00:23:31.647Z,2.42
2023-03-04T00:24:03.488Z,2.42
2023-03-04T00:24:35.331Z,2.40
2023-03-04T00:25:07.484Z,2.39
2023-03-04T00:25:39.126Z,2.39
2023-03-04T00:26:10.825Z,2.39
2023-03-04T00:26:42.518Z,2.38
2023-03-04T00:27:14.128Z,2.38
2023-03-04T00:27:45.791Z,2.37
2023-03-04T00:28:17.459Z,2.37
2023-03-04T00:28:49.059Z,2.38
2023-03-04T00:29:22.886Z,2.38
2023-03-04T00:29:54.498Z,2.37
2023-03-04T00:30:26.140Z,2.37
2023-03-04T00:30:58.015Z,2.37
2023-03-04T00:31:29.625Z,2.36
2023-03-04T00:32:01.342Z,2.35
2023-03-04T00:32:33.258Z,2.33
2023-03-04T00:33:04.879Z,2.33
2023-03-04T00:33:36.887Z,2.32
2023-03-04T00:34:08.552Z,2.31
2023-03-04T00:34:40.784Z,2.31
2023-03-04T00:35:12.476Z,2.32
2023-03-04T00:35:44.219Z,2.30
2023-03-04T00:36:15.883Z,2.31
2023-03-04T00:36:47.595Z,2.31
2023-03-04T00:37:19.190Z,2.30
2023-03-04T00:37:51.045Z,2.31
2023-03-04T00:38:22.750Z,2.30
2023-03-04T00:38:54.397Z,2.29
2023-03-04T00:39:25.981Z,2.31
2023-03-04T00:39:57.593Z,2.31
2023-03-04T00:40:29.200Z,2.32
2023-03-04T00:41:00.883Z,2.33
2023-03-04T00:41:32.520Z,2.33
2023-03-04T00:42:04.194Z,2.34
2023-03-04T00:42:35.849Z,2.32
2023-03-04T00:43:07.532Z,2.32
2023-03-04T00:43:39.312Z,2.33
2023-03-04T00:44:10.931Z,2.33
2023-03-04T00:44:42.660Z,2.34
2023-03-04T00:45:14.338Z,2.35
2023-03-04T00:45:46.015Z,2.34
2023-03-04T00:46:17.711Z,2.34
2023-03-04T00:46:49.347Z,2.33
2023-03-04T00:47:20.939Z,2.33
2023-03-04T00:47:52.551Z,2.33
2023-03-04T00:48:24.284Z,2.32
2023-03-04T00:48:55.860Z,2.32
2023-03-04T00:49:27.563Z,2.33
2023-03-04T00:49:59.166Z,2.32
2023-03-04T00:50:30.904Z,2.29
2023-03-04T00:51:02.508Z,2.31
2023-03-04T00:51:34.393Z,2.29
2023-03-04T00:52:06.158Z,2.28
2023-03-04T00:52:37.841Z,2.28
2023-03-04T00:53:10.099Z,2.28
2023-03-04T00:53:41.678Z,2.28
2023-03-04T00:54:13.365Z,2.28
2023-03-04T00:54:44.966Z,2.27
2023-03-04T00:55:16.602Z,2.27
2023-03-04T00:55:48.221Z,2.27
2023-03-04T00:56:19.857Z,2.26
2023-03-04T00:56:51.490Z,2.26
2023-03-04T00:57:23.164Z,2.27
2023-03-04T00:57:54.860Z,2.27
2023-03-04T00:58:26.554Z,2.28
2023-03-04T00:58:58.225Z,2.28
2023-03-04T00:59:29.857Z,2.28
2023-03-04T01:00:01.411Z,2.27
2023-03-04T01:00:33.093Z,2.27
2023-03-04T01:01:04.968Z,2.28
2023-03-04T01:01:36.663Z,2.28
2023-03-04T01:02:08.344Z,2.26
2023-03-04T01:02:39.962Z,2.27
2023-03-04T01:03:11.647Z,2.26
2023-03-04T01:03:43.306Z,2.23
2023-03-04T01:04:14.908Z,2.22
2023-03-04T01:04:46.528Z,2.23
2023-03-04T01:05:18.211Z,2.22
2023-03-04T01:05:49.758Z,2.16
2023-03-04T01:06:21.529Z,2.13
2023-03-04T01:06:53.184Z,2.12
2023-03-04T01:07:24.734Z,2.10
2023-03-04T01:07:56.326Z,2.10
2023-03-04T01:08:27.998Z,2.08
2023-03-04T01:08:59.592Z,2.07
2023-03-04T01:09:31.554Z,2.07
2023-03-04T01:10:03.237Z,2.08
2023-03-04T01:10:34.813Z,2.07
2023-03-04T01:11:07.081Z,2.06
2023-03-04T01:11:38.757Z,2.08
2023-03-04T01:12:10.340Z,2.09
2023-03-04T01:12:42.526Z,2.09
2023-03-04T01:13:14.365Z,2.09
2023-03-04T01:13:46.327Z,2.10
2023-03-04T01:14:18.049Z,2.12
2023-03-04T01:14:49.745Z,2.13
2023-03-04T01:15:21.393Z,2.15
2023-03-04T01:15:53.123Z,2.15
2023-03-04T01:16:24.842Z,2.17
2023-03-04T01:16:56.537Z,2.18
2023-03-04T01:17:28.140Z,2.19
2023-03-04T01:17:59.729Z,2.21
2023-03-04T01:18:31.447Z,2.22
2023-03-04T01:19:03.067Z,2.23
2023-03-04T01:19:34.621Z,2.23
2023-03-04T01:20:10.393Z,2.25
2023-03-04T01:20:42.057Z,2.25
2023-03-04T01:21:14.124Z,2.26
2023-03-04T01:21:45.763Z,2.29
2023-03-04T01:22:19.189Z,2.28
2023-03-04T01:22:50.764Z,2.29
2023-03-04T01:23:22.501Z,2.30
2023-03-04T01:23:54.115Z,2.30
2023-03-04T01:24:25.775Z,2.32
2023-03-04T01:24:57.470Z,2.28
2023-03-04T01:25:29.050Z,2.30
2023-03-04T01:26:00.752Z,2.30
2023-03-04T01:26:32.396Z,2.30
2023-03-04T01:27:04.152Z,2.31
2023-03-04T01:27:35.792Z,2.31
2023-03-04T01:28:07.394Z,2.31
2023-03-04T01:28:39.025Z,2.28
2023-03-04T01:29:10.856Z,2.26
2023-03-04T01:29:42.515Z,2.26
2023-03-04T01:30:14.268Z,2.25
2023-03-04T01:30:46.010Z,2.23
2023-03-04T01:31:17.742Z,2.22
2023-03-04T01:31:49.422Z,2.21
2023-03-04T01:32:21.241Z,2.20
2023-03-04T01:32:52.944Z,2.19
2023-03-04T01:33:24.566Z,2.19
2023-03-04T01:33:56.193Z,2.19
2023-03-04T01:34:27.805Z,2.20
2023-03-04T01:34:59.453Z,2.21
2023-03-04T01:35:31.236Z,2.22
2023-03-04T01:36:02.872Z,2.21
2023-03-04T01:36:34.488Z,2.21
2023-03-04T01:37:06.130Z,2.21
2023-03-04T01:37:37.790Z,2.21
2023-03-04T01:38:09.449Z,2.22
2023-03-04T01:38:41.091Z,2.22
2023-03-04T01:39:12.711Z,2.22
2023-03-04T01:39:44.390Z,2.23
2023-03-04T01:40:16.051Z,2.23
2023-03-04T01:40:49.314Z,2.24
2023-03-04T01:41:25.455Z,2.23
2023-03-04T01:41:57.021Z,2.24
2023-03-04T01:42:31.015Z,2.25
2023-03-04T01:43:02.849Z,2.26
2023-03-04T01:43:36.106Z,2.26
2023-03-04T01:44:09.892Z,2.26
2023-03-04T01:44:41.617Z,2.27
2023-03-04T01:45:17.776Z,2.26
2023-03-04T01:45:50.611Z,2.25
2023-03-04T01:46:22.440Z,2.25
2023-03-04T01:46:55.255Z,2.25
2023-03-04T01:47:29.373Z,2.25
2023-03-04T01:48:01.034Z,2.24
2023-03-04T01:48:37.378Z,2.23
2023-03-04T01:49:10.392Z,2.21
2023-03-04T01:49:42.158Z,2.20
2023-03-04T01:50:18.157Z,2.19
2023-03-04T01:50:49.713Z,2.19
2023-03-04T01:51:21.865Z,2.18
2023-03-04T01:51:54.651Z,2.17
2023-03-04T01:52:27.640Z,2.15
2023-03-04T01:52:59.619Z,2.16
2023-03-04T01:53:32.291Z,2.15
2023-03-04T01:54:03.942Z,2.14
2023-03-04T01:54:35.583Z,2.14
2023-03-04T01:55:15.934Z,2.09
2023-03-04T01:55:48.295Z,2.09
2023-03-04T01:56:24.005Z,2.07
2023-03-04T01:56:55.598Z,2.08
2023-03-04T01:57:27.322Z,2.08
2023-03-04T01:57:58.947Z,2.10
2023-03-04T01:58:32.154Z,2.08
2023-03-04T01:59:09.595Z,2.07
2023-03-04T01:59:41.499Z,2.08
2023-03-04T02:00:15.866Z,2.08
2023-03-04T02:00:47.540Z,2.09
2023-03-04T02:01:19.185Z,2.08
2023-03-04T02:01:53.917Z,2.06
2023-03-04T02:02:25.594Z,2.07
2023-03-04T02:03:09.141Z,2.07
2023-03-04T02:03:40.850Z,2.05
2023-03-04T02:04:12.938Z,2.05
2023-03-04T02:04:44.758Z,2.07
2023-03-04T02:05:16.456Z,2.07
2023-03-04T02:05:50.460Z,2.06
2023-03-04T02:06:22.066Z,2.07
2023-03-04T02:06:54.095Z,2.07
2023-03-04T02:07:25.800Z,2.06
2023-03-04T02:07:58.233Z,2.06
2023-03-04T02:08:29.955Z,2.07
2023-03-04T02:09:01.584Z,2.07
2023-03-04T02:09:34.231Z,2.05
2023-03-04T02:10:06.272Z,2.06
2023-03-04T02:10:38.728Z,2.05
2023-03-04T02:11:10.327Z,2.05
2023-03-04T02:11:42.768Z,2.04
2023-03-04T02:12:14.395Z,2.04
2023-03-04T02:12:46.145Z,2.04
2023-03-04T02:13:18.257Z,2.05
2023-03-04T02:13:49.962Z,2.05
2023-03-04T02:14:22.383Z,2.03
2023-03-04T02:14:54.920Z,2.03
2023-03-04T02:15:26.510Z,2.03
2023-03-04T02:15:58.200Z,2.02
2023-03-04T02:16:29.818Z,2.02
2023-03-04T02:17:01.466Z,2.03
2023-03-04T02:17:33.594Z,2.02
2023-03-04T02:18:20.901Z,2.01
2023-03-04T02:18:52.574Z,2.01
2023-03-04T02:19:26.767Z,2.02
2023-03-04T02:20:33.044Z,1.98
2023-03-04T02:21:13.049Z,1.94
2023-03-04T02:21:44.603Z,1.94
2023-03-04T02:22:16.254Z,1.96
2023-03-04T02:22:57.664Z,1.95
2023-03-04T02:23:47.372Z,1.95
2023-03-04T02:24:49.303Z,1.88
2023-03-04T02:25:25.929Z,1.88
2023-03-04T02:26:13.761Z,1.89
2023-03-04T02:26:46.999Z,1.89
2023-03-04T02:27:21.007Z,1.88
2023-03-04T02:27:53.549Z,1.84
2023-03-04T02:28:25.159Z,1.84
2023-03-04T02:28:58.397Z,1.78
2023-03-04T02:29:30.006Z,1.75
2023-03-04T02:30:01.680Z,1.75
2023-03-04T02:30:33.294Z,1.76
2023-03-04T02:31:05.084Z,1.77
2023-03-04T02:31:39.544Z,1.75
2023-03-04T02:32:12.834Z,1.70
2023-03-04T02:32:44.523Z,1.69
2023-03-04T02:33:18.040Z,1.68
2023-03-04T02:33:50.650Z,1.66
2023-03-04T02:34:29.382Z,1.64
2023-03-04T02:35:01.025Z,1.65
2023-03-04T02:35:32.849Z,1.61
2023-03-04T02:36:04.646Z,1.63
2023-03-04T02:36:36.555Z,1.64
2023-03-04T02:37:10.911Z,1.64
2023-03-04T02:37:42.565Z,1.64
2023-03-04T02:38:14.227Z,1.66
2023-03-04T02:38:45.913Z,1.66
2023-03-04T02:39:20.161Z,1.67
2023-03-04T02:39:51.884Z,1.68
2023-03-04T02:40:26.620Z,1.69
2023-03-04T02:40:58.500Z,1.70
2023-03-04T02:41:30.587Z,1.73
2023-03-04T02:42:03.808Z,1.74
2023-03-04T02:42:35.456Z,1.76
2023-03-04T02:43:07.184Z,1.78
2023-03-04T02:43:38.853Z,1.81
2023-03-04T02:44:22.399Z,1.81
2023-03-04T02:45:01.244Z,1.80
2023-03-04T02:45:37.195Z,1.82
2023-03-04T02:46:12.095Z,1.83
2023-03-04T02:46:43.919Z,1.85
2023-03-04T02:47:20.538Z,1.85
2023-03-04T02:47:52.198Z,1.83
2023-03-04T02:48:26.758Z,1.85
2023-03-04T02:48:58.335Z,1.86
2023-03-04T02:49:31.182Z,1.87
2023-03-04T02:50:02.817Z,1.89
2023-03-04T02:50:39.172Z,1.89
2023-03-04T02:51:11.125Z,1.92
2023-03-04T02:51:42.751Z,1.95
2023-03-04T02:52:18.302Z,1.97
2023-03-04T02:52:49.897Z,2.00
2023-03-04T02:53:22.441Z,2.01
2023-03-04T02:53:53.994Z,2.03
2023-03-04T02:54:25.592Z,2.05
2023-03-04T02:54:57.269Z,2.08
2023-03-04T02:55:29.692Z,2.10
2023-03-04T02:56:01.322Z,2.11
2023-03-04T02:56:33.042Z,2.16
2023-03-04T02:57:08.003Z,2.18
2023-03-04T02:57:39.597Z,2.19
2023-03-04T02:58:11.957Z,2.21
2023-03-04T02:58:43.550Z,2.24
2023-03-04T02:59:15.277Z,2.26
2023-03-04T02:59:46.950Z,2.29
2023-03-04T03:00:18.727Z,2.30
2023-03-04T03:00:50.369Z,2.33
2023-03-04T03:01:22.108Z,2.35
2023-03-04T03:01:53.920Z,2.36
2023-03-04T03:02:27.132Z,2.35
2023-03-04T03:02:58.993Z,2.36
2023-03-04T03:03:30.668Z,2.37
2023-03-04T03:04:02.336Z,2.39
2023-03-04T03:04:35.120Z,2.39
2023-03-04T03:05:06.965Z,2.40
2023-03-04T03:05:39.398Z,2.43
2023-03-04T03:06:11.085Z,2.44
2023-03-04T03:06:42.703Z,2.46
2023-03-04T03:07:14.384Z,2.49
2023-03-04T03:07:46.112Z,2.51
2023-03-04T03:08:17.702Z,2.51
2023-03-04T03:08:49.316Z,2.53
2023-03-04T03:09:21.459Z,2.55
2023-03-04T03:09:53.022Z,2.57
2023-03-04T03:10:24.797Z,2.59
2023-03-04T03:10:56.489Z,2.61
2023-03-04T03:11:28.090Z,2.63
2023-03-04T03:11:59.787Z,2.63
2023-03-04T03:12:31.421Z,2.64
2023-03-04T03:13:03.321Z,2.66
2023-03-04T03:13:34.969Z,2.67
2023-03-04T03:14:06.633Z,2.68
2023-03-04T03:14:38.265Z,2.69
2023-03-04T03:15:10.286Z,2.70
2023-03-04T03:15:42.540Z,2.72
2023-03-04T03:16:14.198Z,2.73
2023-03-04T03:16:45.885Z,2.74
2023-03-04T03:17:17.529Z,2.75
2023-03-04T03:17:49.250Z,2.77
2023-03-04T03:18:20.917Z,2.78
2023-03-04T03:18:52.593Z,2.79
2023-03-04T03:19:24.175Z,2.80
2023-03-04T03:19:56.671Z,2.83
2023-03-04T03:20:28.212Z,2.84
2023-03-04T03:20:59.795Z,2.86
2023-03-04T03:21:31.459Z,2.87
2023-03-04T03:22:03.175Z,2.88
2023-03-04T03:22:34.762Z,2.89
2023-03-04T03:23:06.325Z,2.91
2023-03-04T03:23:37.901Z,2.91
2023-03-04T03:24:09.493Z,2.91
2023-03-04T03:24:41.146Z,2.93
2023-03-04T03:25:14.244Z,2.95
2023-03-04T03:25:45.793Z,2.95
2023-03-04T03:26:18.366Z,2.97
2023-03-04T03:26:49.992Z,2.98
2023-03-04T03:27:21.622Z,2.99
2023-03-04T03:27:53.244Z,3.01
2023-03-04T03:28:24.836Z,3.02
2023-03-04T03:28:56.442Z,3.02
2023-03-04T03:29:28.007Z,3.02
2023-03-04T03:29:59.634Z,3.03
2023-03-04T03:30:31.358Z,3.02
2023-03-04T03:31:03.027Z,3.04
2023-03-04T03:31:34.790Z,3.04
2023-03-04T03:32:06.576Z,3.04
2023-03-04T03:32:38.282Z,3.04
2023-03-04T03:33:09.956Z,3.04
2023-03-04T03:33:41.581Z,3.05
2023-03-04T03:34:13.241Z,3.05
2023-03-04T03:34:44.870Z,3.04
2023-03-04T03:35:16.495Z,3.04
2023-03-04T03:35:48.297Z,3.07
2023-03-04T03:36:20.107Z,3.06
2023-03-04T03:36:51.744Z,3.07
2023-03-04T03:37:23.642Z,3.08
2023-03-04T03:37:55.268Z,3.08
2023-03-04T03:38:27.650Z,3.08
2023-03-04T03:38:59.262Z,3.08
2023-03-04T03:39:30.851Z,3.09
2023-03-04T03:40:02.817Z,3.10
2023-03-04T03:40:34.509Z,3.12
2023-03-04T03:41:06.108Z,3.13
2023-03-04T03:41:37.674Z,3.15
2023-03-04T03:42:09.301Z,3.16
2023-03-04T03:42:41.027Z,3.17
2023-03-04T03:43:12.603Z,3.19
2023-03-04T03:43:44.152Z,3.21
2023-03-04T03:44:16.103Z,3.22
2023-03-04T03:44:47.844Z,3.23
2023-03-04T03:45:19.422Z,3.24
2023-03-04T03:45:52.164Z,3.23
2023-03-04T03:46:23.891Z,3.24
2023-03-04T03:46:55.528Z,3.25
2023-03-04T03:47:27.431Z,3.24
2023-03-04T03:47:59.015Z,3.22
2023-03-04T03:48:30.609Z,3.22
2023-03-04T03:49:02.170Z,3.21
2023-03-04T03:49:33.758Z,3.20
2023-03-04T03:50:05.956Z,3.19
2023-03-04T03:50:37.657Z,3.17
2023-03-04T03:51:09.595Z,3.17
2023-03-04T03:51:41.282Z,3.16
2023-03-04T03:52:13.053Z,3.17
2023-03-04T03:52:44.631Z,3.18
2023-03-04T03:53:16.226Z,3.18
2023-03-04T03:53:47.841Z,3.19
2023-03-04T03:54:19.575Z,3.20
2023-03-04T03:54:51.251Z,3.18
2023-03-04T03:55:23.274Z,3.17
2023-03-04T03:55:54.924Z,3.15
2023-03-04T03:56:26.508Z,3.15
2023-03-04T03:56:58.192Z,3.16
2023-03-04T03:57:30.166Z,3.16
2023-03-04T03:58:01.736Z,3.15
2023-03-04T03:58:33.369Z,3.16
2023-03-04T03:59:05.002Z,3.15
2023-03-04T03:59:36.623Z,3.14
2023-03-04T04:00:10.355Z,3.13
2023-03-04T04:00:41.924Z,3.13
2023-03-04T04:01:13.480Z,3.14
2023-03-04T04:01:45.203Z,3.14
2023-03-04T04:02:16.918Z,3.14
2023-03-04T04:02:48.662Z,3.14
2023-03-04T04:03:20.761Z,3.14
2023-03-04T04:03:53.177Z,3.13
2023-03-04T04:04:24.841Z,3.12
2023-03-04T04:04:56.529Z,3.13
2023-03-04T04:05:28.174Z,3.13
2023-03-04T04:05:59.842Z,3.13
2023-03-04T04:06:31.467Z,3.13
2023-03-04T04:07:03.220Z,3.14
2023-03-04T04:07:34.938Z,3.13
2023-03-04T04:08:06.621Z,3.15
2023-03-04T04:08:38.437Z,3.13
2023-03-04T04:09:10.029Z,3.14
2023-03-04T04:09:41.681Z,3.15
2023-03-04T04:10:13.248Z,3.16
2023-03-04T04:10:45.043Z,3.18
2023-03-04T04:11:16.714Z,3.20
2023-03-04T04:11:48.440Z,3.21
2023-03-04T04:12:20.457Z,3.24
2023-03-04T04:12:52.078Z,3.25
2023-03-04T04:13:23.793Z,3.27
2023-03-04T04:13:55.433Z,3.28
2023-03-04T04:14:27.012Z,3.31
2023-03-04T04:14:58.681Z,3.33
2023-03-04T04:15:30.270Z,3.34
2023-03-04T04:16:01.908Z,3.37
2023-03-04T04:16:33.702Z,3.39
2023-03-04T04:17:05.433Z,3.42
2023-03-04T04:17:37.058Z,3.44
2023-03-04T04:18:09.037Z,3.46
2023-03-04T04:18:40.654Z,3.49
2023-03-04T04:19:17.995Z,3.49
2023-03-04T04:19:49.606Z,3.50
2023-03-04T04:20:21.260Z,3.52
2023-03-04T04:20:53.754Z,3.54
2023-03-04T04:21:25.355Z,3.56
2023-03-04T04:21:56.913Z,3.57
2023-03-04T04:22:28.486Z,3.60
2023-03-04T04:23:00.070Z,3.60
2023-03-04T04:23:31.893Z,3.60
2023-03-04T04:24:03.569Z,3.61
2023-03-04T04:24:36.048Z,3.60
2023-03-04T04:25:10.655Z,3.59
2023-03-04T04:25:42.302Z,3.57
2023-03-04T04:26:13.916Z,3.58
2023-03-04T04:26:45.524Z,3.59
2023-03-04T04:27:17.136Z,3.58
2023-03-04T04:27:48.705Z,3.58
2023-03-04T04:28:20.359Z,3.57
2023-03-04T04:28:52.017Z,3.57
2023-03-04T04:29:23.642Z,3.56
2023-03-04T04:29:55.324Z,3.57
2023-03-04T04:30:26.965Z,3.56
2023-03-04T04:30:58.627Z,3.54
2023-03-04T04:31:30.243Z,3.53
2023-03-04T04:32:01.939Z,3.55
2023-03-04T04:32:33.642Z,3.53
2023-03-04T04:33:05.293Z,3.54
2023-03-04T04:33:36.897Z,3.51
2023-03-04T04:34:09.033Z,3.50
2023-03-04T04:34:40.717Z,3.48
2023-03-04T04:35:12.477Z,3.48
2023-03-04T04:35:44.155Z,3.47
2023-03-04T04:36:20.856Z,3.46
2023-03-04T04:36:53.066Z,3.44
2023-03-04T04:37:24.634Z,3.44
2023-03-04T04:37:56.715Z,3.43
2023-03-04T04:38:28.441Z,3.42
2023-03-04T04:39:00.190Z,3.43
2023-03-04T04:39:31.895Z,3.43
2023-03-04T04:40:04.381Z,3.43
2023-03-04T04:40:36.529Z,3.41
2023-03-04T04:41:19.256Z,3.39
2023-03-04T04:41:50.884Z,3.37
2023-03-04T04:42:22.773Z,3.36
2023-03-04T04:42:54.367Z,3.35
2023-03-04T04:43:26.125Z,3.36
2023-03-04T04:43:57.743Z,3.35
2023-03-04T04:44:29.371Z,3.36
2023-03-04T04:45:01.136Z,3.36
2023-03-04T04:45:32.792Z,3.35
2023-03-04T04:46:04.556Z,3.37
2023-03-04T04:46:36.896Z,3.37
2023-03-04T04:47:09.947Z,3.36
2023-03-04T04:47:41.656Z,3.36
2023-03-04T04:48:13.296Z,3.35
2023-03-04T04:48:45.036Z,3.36
2023-03-04T04:49:16.634Z,3.37
2023-03-04T04:49:48.242Z,3.38
2023-03-04T04:50:20.026Z,3.39
2023-03-04T04:50:56.340Z,3.38
2023-03-04T04:51:28.375Z,3.39
2023-03-04T04:52:00.055Z,3.38
2023-03-04T04:52:31.660Z,3.38
2023-03-04T04:53:03.421Z,3.39
2023-03-04T04:53:35.226Z,3.38
2023-03-04T04:54:07.624Z,3.38
2023-03-04T04:54:39.227Z,3.39
2023-03-04T04:55:11.121Z,3.39
2023-03-04T04:55:42.798Z,3.40
2023-03-04T04:56:16.813Z,3.41
2023-03-04T04:56:48.585Z,3.41
2023-03-04T04:57:20.214Z,3.44
2023-03-04T04:57:51.880Z,3.45
2023-03-04T04:58:23.780Z,3.47
2023-03-04T04:58:57.784Z,3.48
2023-03-04T04:59:29.383Z,3.49
2023-03-04T05:00:01.049Z,3.52
2023-03-04T05:00:32.608Z,3.54
2023-03-04T05:01:05.039Z,3.53
2023-03-04T05:01:36.729Z,3.53
2023-03-04T05:02:08.378Z,3.53
2023-03-04T05:02:39.939Z,3.54
2023-03-04T05:03:11.567Z,3.55
2023-03-04T05:03:43.412Z,3.56
2023-03-04T05:04:15.089Z,3.57
2023-03-04T05:04:46.705Z,3.57
2023-03-04T05:05:18.313Z,3.58
2023-03-04T05:05:49.907Z,3.59
2023-03-04T05:06:23.856Z,3.59
2023-03-04T05:06:55.456Z,3.60
2023-03-04T05:07:27.008Z,3.61
2023-03-04T05:07:58.853Z,3.64
2023-03-04T05:08:30.506Z,3.65
2023-03-04T05:09:02.382Z,3.67
2023-03-04T05:09:34.088Z,3.67
2023-03-04T05:10:05.996Z,3.67
2023-03-04T05:10:38.192Z,3.70
2023-03-04T05:11:09.811Z,3.70
2023-03-04T05:11:41.457Z,3.72
2023-03-04T05:12:13.215Z,3.73
2023-03-04T05:12:45.295Z,3.75
2023-03-04T05:13:17.014Z,3.76
2023-03-04T05:13:49.497Z,3.77
2023-03-04T05:14:21.053Z,3.79
2023-03-04T05:14:52.673Z,3.80
2023-03-04T05:15:25.097Z,3.82
2023-03-04T05:15:56.989Z,3.84
2023-03-04T05:16:28.632Z,3.86
2023-03-04T05:17:00.321Z,3.87
2023-03-04T05:17:31.895Z,3.88
2023-03-04T05:18:03.545Z,3.89
2023-03-04T05:18:35.192Z,3.92
2023-03-04T05:19:07.037Z,3.94
2023-03-04T05:19:38.657Z,3.95
2023-03-04T05:20:11.079Z,3.96
2023-03-04T05:20:42.702Z,3.97
2023-03-04T05:21:14.597Z,3.99
2023-03-04T05:21:46.236Z,4.00
2023-03-04T05:22:17.876Z,4.02
2023-03-04T05:22:49.559Z,4.03
2023-03-04T05:23:21.253Z,4.03
2023-03-04T05:23:52.872Z,4.04
2023-03-04T05:24:24.549Z,4.05
2023-03-04T05:24:57.301Z,4.06
2023-03-04T05:25:29.110Z,4.07
2023-03-04T05:26:01.333Z,4.07
2023-03-04T05:26:33.297Z,4.07
2023-03-04T05:27:04.899Z,4.09
2023-03-04T05:27:36.516Z,4.11
2023-03-04T05:28:12.562Z,4.11
2023-03-04T05:28:44.949Z,4.12
2023-03-04T05:29:16.600Z,4.12
2023-03-04T05:29:48.137Z,4.13
2023-03-04T05:30:19.831Z,4.15
2023-03-04T05:30:51.516Z,4.15
2023-03-04T05:31:23.275Z,4.17
2023-03-04T05:31:54.927Z,4.18
2023-03-04T05:32:26.960Z,4.18
2023-03-04T05:32:58.612Z,4.18
2023-03-04T05:33:30.599Z,4.20
2023-03-04T05:34:02.283Z,4.20
2023-03-04T05:34:33.892Z,4.22
2023-03-04T05:35:06.520Z,4.22
2023-03-04T05:35:39.112Z,4.21
2023-03-04T05:36:10.834Z,4.23
2023-03-04T05:36:42.444Z,4.23
2023-03-04T05:37:14.076Z,4.23
2023-03-04T05:37:45.684Z,4.25
2023-03-04T05:38:19.589Z,4.25
2023-03-04T05:38:51.405Z,4.25
2023-03-04T05:39:22.998Z,4.26
2023-03-04T05:39:54.624Z,4.28
2023-03-04T05:40:26.261Z,4.29
2023-03-04T05:40:59.542Z,4.29
2023-03-04T05:41:31.206Z,4.29
2023-03-04T05:42:02.758Z,4.31
2023-03-04T05:42:34.373Z,4.31
2023-03-04T05:43:06.168Z,4.32
2023-03-04T05:43:42.915Z,4.33
2023-03-04T05:44:14.727Z,4.32
2023-03-04T05:44:46.366Z,4.34
2023-03-04T05:45:18.112Z,4.35
2023-03-04T05:45:50.031Z,4.37
2023-03-04T05:46:25.694Z,4.37
2023-03-04T05:46:57.473Z,4.37
2023-03-04T05:47:29.009Z,4.38
2023-03-04T05:48:00.712Z,4.39
2023-03-04T05:48:32.376Z,4.38
2023-03-04T05:49:04.139Z,4.39
2023-03-04T05:49:35.785Z,4.39
2023-03-04T05:50:07.827Z,4.40
2023-03-04T05:50:39.461Z,4.40
2023-03-04T05:51:11.382Z,4.41
2023-03-04T05:51:43.031Z,4.42
2023-03-04T05:52:14.657Z,4.43
2023-03-04T05:52:46.431Z,4.43
2023-03-04T05:53:17.967Z,4.44
2023-03-04T05:53:49.951Z,4.46
2023-03-04T05:54:21.857Z,4.47
2023-03-04T05:54:53.511Z,4.47
2023-03-04T05:55:25.316Z,4.48
2023-03-04T05:55:56.998Z,4.49
2023-03-04T05:56:30.155Z,4.49
2023-03-04T05:57:02.551Z,4.50
2023-03-04T05:57:34.164Z,4.51
2023-03-04T05:58:05.699Z,4.52
2023-03-04T05:58:37.473Z,4.52
2023-03-04T05:59:09.069Z,4.52
2023-03-04T05:59:40.620Z,4.52
2023-03-04T06:00:13.457Z,4.53
2023-03-04T06:00:45.688Z,4.54
2023-03-04T06:01:17.714Z,4.54
2023-03-04T06:01:49.484Z,4.55
2023-03-04T06:02:21.059Z,4.55
2023-03-04T06:02:52.784Z,4.55
2023-03-04T06:03:25.388Z,4.56
2023-03-04T06:03:57.220Z,4.57
2023-03-04T06:04:28.836Z,4.58
2023-03-04T06:05:00.632Z,4.58
2023-03-04T06:05:32.271Z,4.59
2023-03-04T06:06:04.260Z,4.59
2023-03-04T06:06:35.929Z,4.60
2023-03-04T06:07:07.596Z,4.60
2023-03-04T06:07:39.216Z,4.59
2023-03-04T06:08:12.004Z,4.58
2023-03-04T06:08:43.724Z,4.58
2023-03-04T06:09:15.334Z,4.57
2023-03-04T06:09:46.877Z,4.57
2023-03-04T06:10:18.784Z,4.56
2023-03-04T06:10:53.435Z,4.56
2023-03-04T06:11:25.068Z,4.57
2023-03-04T06:11:56.638Z,4.56
2023-03-04T06:12:28.936Z,4.56
2023-03-04T06:13:00.506Z,4.56
2023-03-04T06:13:32.504Z,4.57
2023-03-04T06:14:04.109Z,4.57
2023-03-04T06:14:35.734Z,4.58
2023-03-04T06:15:10.169Z,4.58
2023-03-04T06:15:41.871Z,4.59
2023-03-04T06:16:13.535Z,4.59
2023-03-04T06:16:45.180Z,4.60
2023-03-04T06:17:16.948Z,4.61
2023-03-04T06:17:48.536Z,4.62
2023-03-04T06:18:20.210Z,4.62
2023-03-04T06:18:51.830Z,4.61
2023-03-04T06:19:23.530Z,4.62
2023-03-04T06:19:55.143Z,4.62
2023-03-04T06:20:26.803Z,4.62
2023-03-04T06:20:59.929Z,4.63
2023-03-04T06:21:31.602Z,4.63
2023-03-04T06:22:03.251Z,4.64
2023-03-04T06:22:35.680Z,4.65
2023-03-04T06:23:07.363Z,4.65
2023-03-04T06:23:38.991Z,4.67
2023-03-04T06:24:10.583Z,4.66
2023-03-04T06:24:42.167Z,4.68
2023-03-04T06:25:13.725Z,4.68
2023-03-04T06:25:45.337Z,4.69
2023-03-04T06:26:16.992Z,4.71
2023-03-04T06:26:48.639Z,4.72
2023-03-04T06:27:20.271Z,4.73
2023-03-04T06:27:53.009Z,4.74
2023-03-04T06:28:25.848Z,4.74
2023-03-04T06:28:57.584Z,4.74
2023-03-04T06:29:29.215Z,4.77
2023-03-04T06:30:01.834Z,4.76
2023-03-04T06:30:34.075Z,4.76
2023-03-04T06:31:05.799Z,4.78
2023-03-04T06:31:38.346Z,4.78
2023-03-04T06:32:10.025Z,4.80
2023-03-04T06:32:44.405Z,4.80
2023-03-04T06:33:16.041Z,4.80
2023-03-04T06:33:47.670Z,4.81
2023-03-04T06:34:19.411Z,4.81
2023-03-04T06:34:51.118Z,4.82
2023-03-04T06:35:22.878Z,4.83
2023-03-04T06:35:55.906Z,4.82
2023-03-04T06:36:27.502Z,4.82
2023-03-04T06:36:59.259Z,4.82
2023-03-04T06:37:30.871Z,4.83
2023-03-04T06:38:02.426Z,4.84
2023-03-04T06:38:34.083Z,4.85
2023-03-04T06:39:06.394Z,4.85
2023-03-04T06:39:38.011Z,4.86
2023-03-04T06:40:11.006Z,4.86
2023-03-04T06:40:42.683Z,4.87
2023-03-04T06:41:14.548Z,4.88
2023-03-04T06:41:46.270Z,4.88
2023-03-04T06:42:17.952Z,4.88
2023-03-04T06:42:49.492Z,4.89
2023-03-04T06:43:21.278Z,4.91
2023-03-04T06:43:55.862Z,4.91
2023-03-04T06:44:27.521Z,4.91
2023-03-04T06:44:59.123Z,4.91
2023-03-04T06:45:30.794Z,4.91
2023-03-04T06:46:02.377Z,4.92
2023-03-04T06:46:35.192Z,4.92
2023-03-04T06:47:07.497Z,4.93
2023-03-04T06:47:39.141Z,4.89
2023-03-04T06:48:10.839Z,4.91
2023-03-04T06:48:42.457Z,4.89
2023-03-04T06:49:14.094Z,4.89
2023-03-04T06:49:45.798Z,4.89
2023-03-04T06:50:17.475Z,4.88
2023-03-04T06:50:49.123Z,4.89
2023-03-04T06:51:20.843Z,4.89
2023-03-04T06:51:53.156Z,4.88
2023-03-04T06:52:24.820Z,4.87
2023-03-04T06:52:57.475Z,4.86
2023-03-04T06:53:29.123Z,4.84
2023-03-04T06:54:00.688Z,4.85
2023-03-04T06:54:32.285Z,4.85
2023-03-04T06:55:04.257Z,4.84
2023-03-04T06:55:35.953Z,4.85
2023-03-04T06:56:09.155Z,4.85
2023-03-04T06:56:40.694Z,4.84
2023-03-04T06:57:13.744Z,4.84
2023-03-04T06:57:48.129Z,4.85
2023-03-04T06:58:20.058Z,4.85
2023-03-04T06:58:51.880Z,4.85
2023-03-04T06:59:23.687Z,4.85
2023-03-04T06:59:55.301Z,4.87
2023-03-04T07:00:26.926Z,4.87
2023-03-04T07:00:58.597Z,4.88
2023-03-04T07:01:30.492Z,4.86
2023-03-04T07:02:02.135Z,4.86
2023-03-04T07:02:33.817Z,4.88
2023-03-04T07:03:05.396Z,4.88
2023-03-04T07:03:36.971Z,4.89
2023-03-04T07:04:08.557Z,4.88
2023-03-04T07:04:40.480Z,4.90
2023-03-04T07:05:12.134Z,4.89
2023-03-04T07:05:44.043Z,4.91
2023-03-04T07:06:17.754Z,4.92
2023-03-04T07:06:49.959Z,4.93
2023-03-04T07:07:21.596Z,4.92
2023-03-04T07:07:53.283Z,4.92
2023-03-04T07:08:24.962Z,4.94
2023-03-04T07:08:56.975Z,4.94